sensor_id;sensor_type;location;lat;lon;timestamp;temperature;humidity
15596;DHT22;7898;48.658;9.068;2023-02-19T00:00:13;10.30;99.90
15596;DHT22;7898;48.658;9.068;2023-02-19T00:02:41;10.20;99.90
15596;DHT22;7898;48.658;9.068;2023-02-19T00:05:11;10.20;99.90
15596;DHT22;7898;48.658;9.068;2023-02-19T00:07:38;10.20;99.90
15596;DHT22;7898;48.658;9.068;2023-02-19T00:10:05;10.30;99.90
15596;DHT22;7898;48.658;9.068;2023-02-19T00:12:32;10.20;99.90
15596;DHT22;7898;48.658;9.068;2023-02-19T00:14:59;10.20;99.90
15596;DHT22;7898;48.658;9.068;2023-02-19T00:17:27;10.30;99.90
15596;DHT22;7898;48.658;9.068;2023-02-19T00:19:54;10.20;99.90
15596;DHT22;7898;48.658;9.068;2023-02-19T00:22:22;10.20;99.90
15596;DHT22;7898;48.658;9.068;2023-02-19T00:24:49;10.30;99.90
15596;DHT22;7898;48.658;9.068;2023-02-19T00:27:15;10.30;99.90
15596;DHT22;7898;48.658;9.068;2023-02-19T00:29:42;10.30;99.90
15596;DHT22;7898;48.658;9.068;2023-02-19T00:32:09;10.30;99.90
15596;DHT22;7898;48.658;9.068;2023-02-19T00:34:37;10.30;99.90
15596;DHT22;7898;48.658;9.068;2023-02-19T00:37:03;10.30;99.90
15596;DHT22;7898;48.658;9.068;2023-02-19T00:39:32;10.30;99.90
15596;DHT22;7898;48.658;9.068;2023-02-19T00:41:59;10.30;99.90
15596;DHT22;7898;48.658;9.068;2023-02-19T00:44:26;10.30;99.90
15596;DHT22;7898;48.658;9.068;2023-02-19T00:46:53;10.30;99.90
15596;DHT22;7898;48.658;9.068;2023-02-19T00:49:21;10.40;99.90
15596;DHT22;7898;48.658;9.068;2023-02-19T00:51:49;10.30;99.90
15596;DHT22;7898;48.658;9.068;2023-02-19T00:54:16;10.40;99.90
15596;DHT22;7898;48.658;9.068;2023-02-19T00:56:46;10.30;99.90
15596;DHT22;7898;48.658;9.068;2023-02-19T00:59:12;10.30;99.90
15596;DHT22;7898;48.658;9.068;2023-02-19T01:01:40;10.40;99.90
15596;DHT22;7898;48.658;9.068;2023-02-19T01:04:07;10.30;99.90
15596;DHT22;7898;48.658;9.068;2023-02-19T01:06:33;10.30;99.90
15596;DHT22;7898;48.658;9.068;2023-02-19T01:09:02;10.30;99.90
15596;DHT22;7898;48.658;9.068;2023-02-19T01:11:28;10.30;99.90
15596;DHT22;7898;48.658;9.068;2023-02-19T01:13:57;10.30;99.90
15596;DHT22;7898;48.658;9.068;2023-02-19T01:16:24;10.30;99.90
15596;DHT22;7898;48.658;9.068;2023-02-19T01:18:52;10.20;99.90
15596;DHT22;7898;48.658;9.068;2023-02-19T01:21:21;10.20;99.90
15596;DHT22;7898;48.658;9.068;2023-02-19T01:23:49;10.20;99.90
15596;DHT22;7898;48.658;9.068;2023-02-19T01:26:18;10.10;99.90
15596;DHT22;7898;48.658;9.068;2023-02-19T01:28:45;10.10;99.90
15596;DHT22;7898;48.658;9.068;2023-02-19T01:31:17;10.10;99.90
15596;DHT22;7898;48.658;9.068;2023-02-19T01:33:45;10.00;99.90
15596;DHT22;7898;48.658;9.068;2023-02-19T01:36:12;10.00;99.90
15596;DHT22;7898;48.658;9.068;2023-02-19T01:38:40;10.00;99.90
15596;DHT22;7898;48.658;9.068;2023-02-19T01:41:09;10.00;99.90
15596;DHT22;7898;48.658;9.068;2023-02-19T01:43:54;10.00;99.90
15596;DHT22;7898;48.658;9.068;2023-02-19T01:46:25;10.00;99.90
15596;DHT22;7898;48.658;9.068;2023-02-19T01:48:53;10.00;99.90
15596;DHT22;7898;48.658;9.068;2023-02-19T01:51:21;10.00;99.90
15596;DHT22;7898;48.658;9.068;2023-02-19T01:53:51;10.00;99.90
15596;DHT22;7898;48.658;9.068;2023-02-19T01:56:20;10.00;99.90
15596;DHT22;7898;48.658;9.068;2023-02-19T01:58:47;10.00;99.90
15596;DHT22;7898;48.658;9.068;2023-02-19T02:01:14;9.90;99.90
15596;DHT22;7898;48.658;9.068;2023-02-19T02:03:45;9.90;99.90
15596;DHT22;7898;48.658;9.068;2023-02-19T02:06:18;9.90;99.90
15596;DHT22;7898;48.658;9.068;2023-02-19T02:08:48;9.80;99.90
15596;DHT22;7898;48.658;9.068;2023-02-19T02:11:33;9.80;99.90
15596;DHT22;7898;48.658;9.068;2023-02-19T02:14:02;9.70;99.90
15596;DHT22;7898;48.658;9.068;2023-02-19T02:16:33;9.70;99.90
15596;DHT22;7898;48.658;9.068;2023-02-19T02:19:13;9.70;99.90
15596;DHT22;7898;48.658;9.068;2023-02-19T02:21:57;9.80;99.90
15596;DHT22;7898;48.658;9.068;2023-02-19T02:24:51;9.70;99.90
15596;DHT22;7898;48.658;9.068;2023-02-19T02:27:37;9.70;99.90
15596;DHT22;7898;48.658;9.068;2023-02-19T02:30:25;9.60;99.90
15596;DHT22;7898;48.658;9.068;2023-02-19T02:32:59;9.70;99.90
15596;DHT22;7898;48.658;9.068;2023-02-19T02:35:31;9.70;99.90
15596;DHT22;7898;48.658;9.068;2023-02-19T02:38:03;9.70;99.90
15596;DHT22;7898;48.658;9.068;2023-02-19T02:40:32;9.60;99.90
15596;DHT22;7898;48.658;9.068;2023-02-19T02:42:59;9.70;99.90
15596;DHT22;7898;48.658;9.068;2023-02-19T02:45:30;9.60;99.90
15596;DHT22;7898;48.658;9.068;2023-02-19T02:48:21;9.60;99.90
15596;DHT22;7898;48.658;9.068;2023-02-19T02:50:52;9.60;99.90
15596;DHT22;7898;48.658;9.068;2023-02-19T02:53:22;9.60;99.90
15596;DHT22;7898;48.658;9.068;2023-02-19T02:56:09;9.50;99.90
15596;DHT22;7898;48.658;9.068;2023-02-19T02:58:36;9.50;99.90
15596;DHT22;7898;48.658;9.068;2023-02-19T03:01:08;9.50;99.90
15596;DHT22;7898;48.658;9.068;2023-02-19T03:03:56;9.40;99.90
15596;DHT22;7898;48.658;9.068;2023-02-19T03:06:27;9.40;99.90
15596;DHT22;7898;48.658;9.068;2023-02-19T03:08:59;9.40;99.90
15596;DHT22;7898;48.658;9.068;2023-02-19T03:11:28;9.40;99.90
15596;DHT22;7898;48.658;9.068;2023-02-19T03:14:17;9.40;99.90
15596;DHT22;7898;48.658;9.068;2023-02-19T03:17:07;9.40;99.90
15596;DHT22;7898;48.658;9.068;2023-02-19T03:19:55;9.50;99.90
15596;DHT22;7898;48.658;9.068;2023-02-19T03:22:25;9.40;99.90
15596;DHT22;7898;48.658;9.068;2023-02-19T03:24:56;9.50;99.90
15596;DHT22;7898;48.658;9.068;2023-02-19T03:27:45;9.50;99.90
15596;DHT22;7898;48.658;9.068;2023-02-19T03:30:16;9.50;99.90
15596;DHT22;7898;48.658;9.068;2023-02-19T03:32:48;9.40;99.90
15596;DHT22;7898;48.658;9.068;2023-02-19T03:35:20;9.40;99.90
15596;DHT22;7898;48.658;9.068;2023-02-19T03:37:53;9.30;99.90
15596;DHT22;7898;48.658;9.068;2023-02-19T03:40:20;9.30;99.90
15596;DHT22;7898;48.658;9.068;2023-02-19T03:42:57;9.20;99.90
15596;DHT22;7898;48.658;9.068;2023-02-19T03:45:32;9.20;99.90
15596;DHT22;7898;48.658;9.068;2023-02-19T03:48:20;9.20;99.90
15596;DHT22;7898;48.658;9.068;2023-02-19T03:50:53;9.10;99.90
15596;DHT22;7898;48.658;9.068;2023-02-19T03:53:28;9.10;99.90
15596;DHT22;7898;48.658;9.068;2023-02-19T03:56:05;9.10;99.90
15596;DHT22;7898;48.658;9.068;2023-02-19T03:58:39;9.10;99.90
15596;DHT22;7898;48.658;9.068;2023-02-19T04:01:09;9.10;99.90
15596;DHT22;7898;48.658;9.068;2023-02-19T04:03:44;9.10;99.90
15596;DHT22;7898;48.658;9.068;2023-02-19T04:06:16;9.10;99.90
15596;DHT22;7898;48.658;9.068;2023-02-19T04:08:48;9.10;99.90
15596;DHT22;7898;48.658;9.068;2023-02-19T04:11:16;9.10;99.90
15596;DHT22;7898;48.658;9.068;2023-02-19T04:13:47;9.10;99.90
15596;DHT22;7898;48.658;9.068;2023-02-19T04:16:19;9.10;99.90
15596;DHT22;7898;48.658;9.068;2023-02-19T04:18:51;9.10;99.90
15596;DHT22;7898;48.658;9.068;2023-02-19T04:21:21;9.10;99.90
15596;DHT22;7898;48.658;9.068;2023-02-19T04:23:48;9.10;99.90
15596;DHT22;7898;48.658;9.068;2023-02-19T04:26:16;9.20;99.90
15596;DHT22;7898;48.658;9.068;2023-02-19T04:28:48;9.20;99.90
15596;DHT22;7898;48.658;9.068;2023-02-19T04:31:15;9.10;99.90
15596;DHT22;7898;48.658;9.068;2023-02-19T04:33:42;9.20;99.90
15596;DHT22;7898;48.658;9.068;2023-02-19T04:36:10;9.20;99.90
15596;DHT22;7898;48.658;9.068;2023-02-19T04:38:37;9.20;99.90
15596;DHT22;7898;48.658;9.068;2023-02-19T04:41:08;9.20;99.90
15596;DHT22;7898;48.658;9.068;2023-02-19T04:43:35;9.20;99.90
15596;DHT22;7898;48.658;9.068;2023-02-19T04:46:02;9.20;99.90
15596;DHT22;7898;48.658;9.068;2023-02-19T04:48:28;9.20;99.90
15596;DHT22;7898;48.658;9.068;2023-02-19T04:50:55;9.10;99.90
15596;DHT22;7898;48.658;9.068;2023-02-19T04:53:23;9.10;99.90
15596;DHT22;7898;48.658;9.068;2023-02-19T04:55:50;9.10;99.90
15596;DHT22;7898;48.658;9.068;2023-02-19T04:58:19;9.10;99.90
15596;DHT22;7898;48.658;9.068;2023-02-19T05:00:51;9.10;99.90
15596;DHT22;7898;48.658;9.068;2023-02-19T05:03:18;9.20;99.90
15596;DHT22;7898;48.658;9.068;2023-02-19T05:05:44;9.10;99.90
15596;DHT22;7898;48.658;9.068;2023-02-19T05:08:11;9.10;99.90
15596;DHT22;7898;48.658;9.068;2023-02-19T05:10:40;9.10;99.90
15596;DHT22;7898;48.658;9.068;2023-02-19T05:13:07;9.10;99.90
15596;DHT22;7898;48.658;9.068;2023-02-19T05:15:34;9.10;99.90
15596;DHT22;7898;48.658;9.068;2023-02-19T05:18:00;9.00;99.90
15596;DHT22;7898;48.658;9.068;2023-02-19T05:20:27;9.00;99.90
15596;DHT22;7898;48.658;9.068;2023-02-19T05:22:54;9.00;99.90
15596;DHT22;7898;48.658;9.068;2023-02-19T05:25:21;9.00;99.90
15596;DHT22;7898;48.658;9.068;2023-02-19T05:27:49;9.00;99.90
15596;DHT22;7898;48.658;9.068;2023-02-19T05:30:36;9.00;99.90
15596;DHT22;7898;48.658;9.068;2023-02-19T05:33:03;9.00;99.90
15596;DHT22;7898;48.658;9.068;2023-02-19T05:35:30;9.00;99.90
15596;DHT22;7898;48.658;9.068;2023-02-19T05:37:56;9.00;99.90
15596;DHT22;7898;48.658;9.068;2023-02-19T05:40:23;9.00;99.90
15596;DHT22;7898;48.658;9.068;2023-02-19T05:42:51;8.90;99.90
15596;DHT22;7898;48.658;9.068;2023-02-19T05:45:18;8.90;99.90
15596;DHT22;7898;48.658;9.068;2023-02-19T05:47:45;8.90;99.90
15596;DHT22;7898;48.658;9.068;2023-02-19T05:50:12;8.90;99.90
15596;DHT22;7898;48.658;9.068;2023-02-19T05:52:39;8.90;99.90
15596;DHT22;7898;48.658;9.068;2023-02-19T05:55:06;8.90;99.90
15596;DHT22;7898;48.658;9.068;2023-02-19T05:57:33;8.90;99.90
15596;DHT22;7898;48.658;9.068;2023-02-19T06:00:08;8.90;99.90
15596;DHT22;7898;48.658;9.068;2023-02-19T06:02:35;8.80;99.90
15596;DHT22;7898;48.658;9.068;2023-02-19T06:05:03;8.80;99.90
15596;DHT22;7898;48.658;9.068;2023-02-19T06:07:30;8.90;99.90
15596;DHT22;7898;48.658;9.068;2023-02-19T06:10:00;8.90;99.90
15596;DHT22;7898;48.658;9.068;2023-02-19T06:12:27;8.90;99.90
15596;DHT22;7898;48.658;9.068;2023-02-19T06:14:54;8.90;99.90
15596;DHT22;7898;48.658;9.068;2023-02-19T06:17:22;8.90;99.90
15596;DHT22;7898;48.658;9.068;2023-02-19T06:19:49;8.90;99.90
15596;DHT22;7898;48.658;9.068;2023-02-19T06:22:16;8.90;99.90
15596;DHT22;7898;48.658;9.068;2023-02-19T06:24:43;8.90;99.90
15596;DHT22;7898;48.658;9.068;2023-02-19T06:27:10;9.00;99.90
15596;DHT22;7898;48.658;9.068;2023-02-19T06:29:37;9.00;99.90
15596;DHT22;7898;48.658;9.068;2023-02-19T06:32:04;9.00;99.90
15596;DHT22;7898;48.658;9.068;2023-02-19T06:34:34;9.00;99.90
15596;DHT22;7898;48.658;9.068;2023-02-19T06:37:01;9.00;99.90
15596;DHT22;7898;48.658;9.068;2023-02-19T06:39:28;9.00;99.90
15596;DHT22;7898;48.658;9.068;2023-02-19T06:41:55;9.00;99.90
15596;DHT22;7898;48.658;9.068;2023-02-19T06:44:22;9.10;99.90
15596;DHT22;7898;48.658;9.068;2023-02-19T06:46:54;9.00;99.90
15596;DHT22;7898;48.658;9.068;2023-02-19T06:49:21;9.00;99.90
15596;DHT22;7898;48.658;9.068;2023-02-19T06:51:49;9.00;99.90
15596;DHT22;7898;48.658;9.068;2023-02-19T06:54:16;9.00;99.90
15596;DHT22;7898;48.658;9.068;2023-02-19T06:56:43;8.90;99.90
15596;DHT22;7898;48.658;9.068;2023-02-19T06:59:12;8.90;99.90
15596;DHT22;7898;48.658;9.068;2023-02-19T07:01:41;8.90;99.90
15596;DHT22;7898;48.658;9.068;2023-02-19T07:04:09;8.90;99.90
15596;DHT22;7898;48.658;9.068;2023-02-19T07:06:36;8.90;99.90
15596;DHT22;7898;48.658;9.068;2023-02-19T07:09:06;8.90;99.90
15596;DHT22;7898;48.658;9.068;2023-02-19T07:11:34;8.90;99.90
15596;DHT22;7898;48.658;9.068;2023-02-19T07:14:03;9.00;99.90
15596;DHT22;7898;48.658;9.068;2023-02-19T07:16:32;9.00;99.90
15596;DHT22;7898;48.658;9.068;2023-02-19T07:19:00;9.00;99.90
15596;DHT22;7898;48.658;9.068;2023-02-19T07:21:27;9.00;99.90
15596;DHT22;7898;48.658;9.068;2023-02-19T07:23:55;9.00;99.90
15596;DHT22;7898;48.658;9.068;2023-02-19T07:26:23;9.00;99.90
15596;DHT22;7898;48.658;9.068;2023-02-19T07:28:50;9.00;99.90
15596;DHT22;7898;48.658;9.068;2023-02-19T07:31:19;9.00;99.90
15596;DHT22;7898;48.658;9.068;2023-02-19T07:33:47;9.00;99.90
15596;DHT22;7898;48.658;9.068;2023-02-19T07:36:15;9.00;99.90
15596;DHT22;7898;48.658;9.068;2023-02-19T07:38:43;9.00;99.90
15596;DHT22;7898;48.658;9.068;2023-02-19T07:41:09;8.90;99.90
15596;DHT22;7898;48.658;9.068;2023-02-19T07:43:38;8.90;99.90
15596;DHT22;7898;48.658;9.068;2023-02-19T07:46:07;9.00;99.90
15596;DHT22;7898;48.658;9.068;2023-02-19T07:48:35;8.90;99.90
15596;DHT22;7898;48.658;9.068;2023-02-19T07:51:04;8.90;99.90
15596;DHT22;7898;48.658;9.068;2023-02-19T07:53:32;8.90;99.90
15596;DHT22;7898;48.658;9.068;2023-02-19T07:56:00;8.90;99.90
15596;DHT22;7898;48.658;9.068;2023-02-19T07:58:27;8.90;99.90
15596;DHT22;7898;48.658;9.068;2023-02-19T08:00:56;8.90;99.90
15596;DHT22;7898;48.658;9.068;2023-02-19T08:03:23;8.90;99.90
15596;DHT22;7898;48.658;9.068;2023-02-19T08:05:49;8.80;99.90
15596;DHT22;7898;48.658;9.068;2023-02-19T08:08:18;8.80;99.90
15596;DHT22;7898;48.658;9.068;2023-02-19T08:10:45;8.90;99.90
15596;DHT22;7898;48.658;9.068;2023-02-19T08:13:30;9.00;99.90
15596;DHT22;7898;48.658;9.068;2023-02-19T08:16:10;8.90;99.90
15596;DHT22;7898;48.658;9.068;2023-02-19T08:18:37;9.00;99.90
15596;DHT22;7898;48.658;9.068;2023-02-19T08:21:04;8.90;99.90
15596;DHT22;7898;48.658;9.068;2023-02-19T08:23:31;8.80;99.90
15596;DHT22;7898;48.658;9.068;2023-02-19T08:25:59;8.80;99.90
15596;DHT22;7898;48.658;9.068;2023-02-19T08:28:26;8.70;99.90
15596;DHT22;7898;48.658;9.068;2023-02-19T08:30:58;8.70;99.90
15596;DHT22;7898;48.658;9.068;2023-02-19T08:33:27;8.70;99.90
15596;DHT22;7898;48.658;9.068;2023-02-19T08:36:00;8.80;99.90
15596;DHT22;7898;48.658;9.068;2023-02-19T08:38:29;8.70;99.90
15596;DHT22;7898;48.658;9.068;2023-02-19T08:40:56;8.70;99.90
15596;DHT22;7898;48.658;9.068;2023-02-19T08:43:23;8.70;99.90
15596;DHT22;7898;48.658;9.068;2023-02-19T08:45:52;8.70;99.90
15596;DHT22;7898;48.658;9.068;2023-02-19T08:48:19;8.70;99.90
15596;DHT22;7898;48.658;9.068;2023-02-19T08:50:54;8.80;99.90
15596;DHT22;7898;48.658;9.068;2023-02-19T08:53:22;8.80;99.90
15596;DHT22;7898;48.658;9.068;2023-02-19T08:55:49;8.90;99.90
15596;DHT22;7898;48.658;9.068;2023-02-19T08:58:16;8.90;99.90
15596;DHT22;7898;48.658;9.068;2023-02-19T09:00:43;9.00;99.90
15596;DHT22;7898;48.658;9.068;2023-02-19T09:03:09;9.00;99.90
15596;DHT22;7898;48.658;9.068;2023-02-19T09:05:36;9.00;99.90
15596;DHT22;7898;48.658;9.068;2023-02-19T09:08:05;9.10;99.90
15596;DHT22;7898;48.658;9.068;2023-02-19T09:10:32;9.30;99.90
15596;DHT22;7898;48.658;9.068;2023-02-19T09:12:58;9.30;99.90
15596;DHT22;7898;48.658;9.068;2023-02-19T09:15:27;9.30;99.90
15596;DHT22;7898;48.658;9.068;2023-02-19T09:17:54;9.50;99.90
15596;DHT22;7898;48.658;9.068;2023-02-19T09:20:21;9.50;99.90
15596;DHT22;7898;48.658;9.068;2023-02-19T09:22:48;9.50;99.90
15596;DHT22;7898;48.658;9.068;2023-02-19T09:25:16;9.50;99.90
15596;DHT22;7898;48.658;9.068;2023-02-19T09:27:43;9.50;99.90
15596;DHT22;7898;48.658;9.068;2023-02-19T09:30:10;9.50;99.90
15596;DHT22;7898;48.658;9.068;2023-02-19T09:32:37;9.50;99.90
15596;DHT22;7898;48.658;9.068;2023-02-19T09:35:04;9.50;99.90
15596;DHT22;7898;48.658;9.068;2023-02-19T09:37:31;9.50;99.90
15596;DHT22;7898;48.658;9.068;2023-02-19T09:39:58;9.60;99.90
15596;DHT22;7898;48.658;9.068;2023-02-19T09:42:28;9.50;99.90
15596;DHT22;7898;48.658;9.068;2023-02-19T09:44:57;9.50;99.90
15596;DHT22;7898;48.658;9.068;2023-02-19T09:47:27;9.60;99.90
15596;DHT22;7898;48.658;9.068;2023-02-19T09:49:56;9.50;99.90
15596;DHT22;7898;48.658;9.068;2023-02-19T09:52:30;9.50;99.90
15596;DHT22;7898;48.658;9.068;2023-02-19T09:55:00;9.50;99.90
15596;DHT22;7898;48.658;9.068;2023-02-19T09:57:32;9.40;99.90
15596;DHT22;7898;48.658;9.068;2023-02-19T10:00:04;9.40;99.90
15596;DHT22;7898;48.658;9.068;2023-02-19T10:02:31;9.40;99.90
15596;DHT22;7898;48.658;9.068;2023-02-19T10:04:58;9.50;99.90
15596;DHT22;7898;48.658;9.068;2023-02-19T10:07:33;9.40;99.90
15596;DHT22;7898;48.658;9.068;2023-02-19T10:10:09;9.40;99.90
15596;DHT22;7898;48.658;9.068;2023-02-19T10:12:48;9.40;99.90
15596;DHT22;7898;48.658;9.068;2023-02-19T10:15:18;9.30;99.90
15596;DHT22;7898;48.658;9.068;2023-02-19T10:17:49;9.40;99.90
15596;DHT22;7898;48.658;9.068;2023-02-19T10:20:18;9.40;99.90
15596;DHT22;7898;48.658;9.068;2023-02-19T10:22:51;9.30;99.90
15596;DHT22;7898;48.658;9.068;2023-02-19T10:25:22;9.30;99.90
15596;DHT22;7898;48.658;9.068;2023-02-19T10:27:50;9.30;99.90
15596;DHT22;7898;48.658;9.068;2023-02-19T10:30:19;9.30;99.90
15596;DHT22;7898;48.658;9.068;2023-02-19T10:32:59;9.40;99.90
15596;DHT22;7898;48.658;9.068;2023-02-19T10:35:26;9.40;99.90
15596;DHT22;7898;48.658;9.068;2023-02-19T10:37:54;9.40;99.90
15596;DHT22;7898;48.658;9.068;2023-02-19T10:40:24;9.40;99.90
15596;DHT22;7898;48.658;9.068;2023-02-19T10:42:55;9.40;99.90
15596;DHT22;7898;48.658;9.068;2023-02-19T10:45:28;9.40;99.90
15596;DHT22;7898;48.658;9.068;2023-02-19T10:47:56;9.40;99.90
15596;DHT22;7898;48.658;9.068;2023-02-19T10:50:25;9.40;99.90
15596;DHT22;7898;48.658;9.068;2023-02-19T10:52:55;9.50;99.90
15596;DHT22;7898;48.658;9.068;2023-02-19T10:55:27;9.60;99.90
15596;DHT22;7898;48.658;9.068;2023-02-19T10:57:56;9.70;99.90
15596;DHT22;7898;48.658;9.068;2023-02-19T11:00:25;9.70;99.90
15596;DHT22;7898;48.658;9.068;2023-02-19T11:03:21;9.80;99.90
15596;DHT22;7898;48.658;9.068;2023-02-19T11:06:00;9.90;99.90
15596;DHT22;7898;48.658;9.068;2023-02-19T11:08:28;10.00;99.90
15596;DHT22;7898;48.658;9.068;2023-02-19T11:10:58;10.00;99.90
15596;DHT22;7898;48.658;9.068;2023-02-19T11:13:29;10.00;99.90
15596;DHT22;7898;48.658;9.068;2023-02-19T11:15:57;10.10;99.90
15596;DHT22;7898;48.658;9.068;2023-02-19T11:18:26;10.10;99.90
15596;DHT22;7898;48.658;9.068;2023-02-19T11:20:56;10.10;99.90
15596;DHT22;7898;48.658;9.068;2023-02-19T11:23:26;10.00;99.90
15596;DHT22;7898;48.658;9.068;2023-02-19T11:25:55;10.00;99.90
15596;DHT22;7898;48.658;9.068;2023-02-19T11:28:34;9.90;99.90
15596;DHT22;7898;48.658;9.068;2023-02-19T11:31:23;10.00;99.90
15596;DHT22;7898;48.658;9.068;2023-02-19T11:33:55;10.10;99.90
15596;DHT22;7898;48.658;9.068;2023-02-19T11:36:31;10.10;99.90
15596;DHT22;7898;48.658;9.068;2023-02-19T11:39:09;10.00;99.90
15596;DHT22;7898;48.658;9.068;2023-02-19T11:42:01;10.10;99.90
15596;DHT22;7898;48.658;9.068;2023-02-19T11:44:45;10.10;99.90
15596;DHT22;7898;48.658;9.068;2023-02-19T11:47:38;10.10;99.90
15596;DHT22;7898;48.658;9.068;2023-02-19T11:50:15;10.10;99.90
15596;DHT22;7898;48.658;9.068;2023-02-19T11:52:52;10.00;99.90
15596;DHT22;7898;48.658;9.068;2023-02-19T11:55:29;10.00;99.90
15596;DHT22;7898;48.658;9.068;2023-02-19T11:58:08;9.90;99.90
15596;DHT22;7898;48.658;9.068;2023-02-19T12:00:46;9.90;99.90
15596;DHT22;7898;48.658;9.068;2023-02-19T12:03:50;10.00;99.90
15596;DHT22;7898;48.658;9.068;2023-02-19T12:06:25;10.10;99.90
15596;DHT22;7898;48.658;9.068;2023-02-19T12:09:25;10.20;99.90
15596;DHT22;7898;48.658;9.068;2023-02-19T12:12:06;10.20;99.90
15596;DHT22;7898;48.658;9.068;2023-02-19T12:14:51;10.20;99.90
15596;DHT22;7898;48.658;9.068;2023-02-19T12:17:35;10.20;99.90
15596;DHT22;7898;48.658;9.068;2023-02-19T12:20:16;10.30;99.90
15596;DHT22;7898;48.658;9.068;2023-02-19T12:22:50;10.20;99.90
15596;DHT22;7898;48.658;9.068;2023-02-19T12:25:33;10.20;99.90
15596;DHT22;7898;48.658;9.068;2023-02-19T12:28:30;10.20;99.90
15596;DHT22;7898;48.658;9.068;2023-02-19T12:31:19;10.10;99.90
15596;DHT22;7898;48.658;9.068;2023-02-19T12:34:17;10.30;99.90
15596;DHT22;7898;48.658;9.068;2023-02-19T12:36:59;10.40;99.90
15596;DHT22;7898;48.658;9.068;2023-02-19T12:39:40;10.60;99.90
15596;DHT22;7898;48.658;9.068;2023-02-19T12:42:15;10.70;99.90
15596;DHT22;7898;48.658;9.068;2023-02-19T12:44:50;10.90;99.90
15596;DHT22;7898;48.658;9.068;2023-02-19T12:47:23;11.10;99.90
15596;DHT22;7898;48.658;9.068;2023-02-19T12:49:59;11.20;99.90
15596;DHT22;7898;48.658;9.068;2023-02-19T12:52:31;11.40;99.90
15596;DHT22;7898;48.658;9.068;2023-02-19T12:55:10;11.60;99.90
15596;DHT22;7898;48.658;9.068;2023-02-19T12:57:42;11.60;99.90
15596;DHT22;7898;48.658;9.068;2023-02-19T13:00:23;11.50;99.90
15596;DHT22;7898;48.658;9.068;2023-02-19T13:02:56;11.60;99.90
15596;DHT22;7898;48.658;9.068;2023-02-19T13:05:37;12.00;99.90
15596;DHT22;7898;48.658;9.068;2023-02-19T13:08:11;12.30;99.90
15596;DHT22;7898;48.658;9.068;2023-02-19T13:10:43;12.60;99.90
15596;DHT22;7898;48.658;9.068;2023-02-19T13:13:14;12.50;99.90
15596;DHT22;7898;48.658;9.068;2023-02-19T13:15:46;12.30;99.90
15596;DHT22;7898;48.658;9.068;2023-02-19T13:18:17;12.20;99.90
15596;DHT22;7898;48.658;9.068;2023-02-19T13:20:47;12.30;99.90
15596;DHT22;7898;48.658;9.068;2023-02-19T13:23:19;12.30;99.90
15596;DHT22;7898;48.658;9.068;2023-02-19T13:26:22;12.30;99.90
15596;DHT22;7898;48.658;9.068;2023-02-19T13:29:02;12.00;99.90
15596;DHT22;7898;48.658;9.068;2023-02-19T13:31:49;11.80;99.90
15596;DHT22;7898;48.658;9.068;2023-02-19T13:34:34;11.80;99.90
15596;DHT22;7898;48.658;9.068;2023-02-19T13:37:06;11.90;99.90
15596;DHT22;7898;48.658;9.068;2023-02-19T13:39:33;11.70;99.90
15596;DHT22;7898;48.658;9.068;2023-02-19T13:42:01;11.50;99.90
15596;DHT22;7898;48.658;9.068;2023-02-19T13:44:29;11.30;99.90
15596;DHT22;7898;48.658;9.068;2023-02-19T13:46:57;11.30;99.90
15596;DHT22;7898;48.658;9.068;2023-02-19T13:49:42;11.20;99.90
15596;DHT22;7898;48.658;9.068;2023-02-19T13:52:37;11.00;99.90
15596;DHT22;7898;48.658;9.068;2023-02-19T13:58:38;10.80;99.90
15596;DHT22;7898;48.658;9.068;2023-02-19T14:01:06;10.80;99.90
15596;DHT22;7898;48.658;9.068;2023-02-19T14:03:46;10.80;99.90
15596;DHT22;7898;48.658;9.068;2023-02-19T14:06:15;10.80;99.90
15596;DHT22;7898;48.658;9.068;2023-02-19T14:08:51;10.70;99.90
15596;DHT22;7898;48.658;9.068;2023-02-19T14:14:33;10.60;99.90
15596;DHT22;7898;48.658;9.068;2023-02-19T14:19:51;10.50;99.90
15596;DHT22;7898;48.658;9.068;2023-02-19T14:22:58;10.40;99.90
15596;DHT22;7898;48.658;9.068;2023-02-19T14:25:40;10.40;99.90
15596;DHT22;7898;48.658;9.068;2023-02-19T14:28:21;10.50;99.90
15596;DHT22;7898;48.658;9.068;2023-02-19T14:30:51;10.50;99.90
15596;DHT22;7898;48.658;9.068;2023-02-19T14:33:21;10.50;99.90
15596;DHT22;7898;48.658;9.068;2023-02-19T14:35:52;10.50;99.90
15596;DHT22;7898;48.658;9.068;2023-02-19T14:38:23;10.50;99.90
15596;DHT22;7898;48.658;9.068;2023-02-19T14:40:53;10.30;99.90
15596;DHT22;7898;48.658;9.068;2023-02-19T14:43:23;10.30;99.90
15596;DHT22;7898;48.658;9.068;2023-02-19T14:45:54;10.20;99.90
15596;DHT22;7898;48.658;9.068;2023-02-19T14:48:23;10.20;99.90
15596;DHT22;7898;48.658;9.068;2023-02-19T14:50:55;10.30;99.90
15596;DHT22;7898;48.658;9.068;2023-02-19T14:53:24;10.30;99.90
15596;DHT22;7898;48.658;9.068;2023-02-19T14:55:54;10.20;99.90
15596;DHT22;7898;48.658;9.068;2023-02-19T14:58:25;10.20;99.90
15596;DHT22;7898;48.658;9.068;2023-02-19T15:00:54;10.10;99.90
15596;DHT22;7898;48.658;9.068;2023-02-19T15:03:27;10.10;99.90
15596;DHT22;7898;48.658;9.068;2023-02-19T15:05:57;10.20;99.90
15596;DHT22;7898;48.658;9.068;2023-02-19T15:08:29;10.10;99.90
15596;DHT22;7898;48.658;9.068;2023-02-19T15:11:00;10.00;99.90
15596;DHT22;7898;48.658;9.068;2023-02-19T15:13:28;9.80;99.90
15596;DHT22;7898;48.658;9.068;2023-02-19T15:15:57;9.70;99.90
15596;DHT22;7898;48.658;9.068;2023-02-19T15:18:25;9.70;99.90
15596;DHT22;7898;48.658;9.068;2023-02-19T15:20:59;9.70;99.90
15596;DHT22;7898;48.658;9.068;2023-02-19T15:23:28;9.60;99.90
15596;DHT22;7898;48.658;9.068;2023-02-19T15:25:57;9.60;99.90
15596;DHT22;7898;48.658;9.068;2023-02-19T15:28:31;9.60;99.90
15596;DHT22;7898;48.658;9.068;2023-02-19T15:31:12;9.60;99.90
15596;DHT22;7898;48.658;9.068;2023-02-19T15:33:39;9.70;99.90
15596;DHT22;7898;48.658;9.068;2023-02-19T15:36:14;9.70;99.90
15596;DHT22;7898;48.658;9.068;2023-02-19T15:38:43;9.60;99.90
15596;DHT22;7898;48.658;9.068;2023-02-19T15:41:18;9.60;99.90
15596;DHT22;7898;48.658;9.068;2023-02-19T15:43:50;9.50;99.90
15596;DHT22;7898;48.658;9.068;2023-02-19T15:46:19;9.50;99.90
15596;DHT22;7898;48.658;9.068;2023-02-19T15:48:49;9.40;99.90
15596;DHT22;7898;48.658;9.068;2023-02-19T15:51:20;9.40;99.90
15596;DHT22;7898;48.658;9.068;2023-02-19T15:53:54;9.40;99.90
15596;DHT22;7898;48.658;9.068;2023-02-19T15:56:27;9.30;99.90
15596;DHT22;7898;48.658;9.068;2023-02-19T15:58:59;9.30;99.90
15596;DHT22;7898;48.658;9.068;2023-02-19T16:01:30;9.30;99.90
15596;DHT22;7898;48.658;9.068;2023-02-19T16:03:57;9.20;99.90
15596;DHT22;7898;48.658;9.068;2023-02-19T16:06:25;9.20;99.90
15596;DHT22;7898;48.658;9.068;2023-02-19T16:09:00;9.20;99.90
15596;DHT22;7898;48.658;9.068;2023-02-19T16:11:34;9.10;99.90
15596;DHT22;7898;48.658;9.068;2023-02-19T16:14:22;9.20;99.90
15596;DHT22;7898;48.658;9.068;2023-02-19T16:16:51;8.90;99.90
15596;DHT22;7898;48.658;9.068;2023-02-19T16:19:20;8.90;99.90
15596;DHT22;7898;48.658;9.068;2023-02-19T16:21:48;9.00;99.90
15596;DHT22;7898;48.658;9.068;2023-02-19T16:24:22;9.00;99.90
15596;DHT22;7898;48.658;9.068;2023-02-19T16:26:52;9.00;99.90
15596;DHT22;7898;48.658;9.068;2023-02-19T16:29:20;8.90;99.90
15596;DHT22;7898;48.658;9.068;2023-02-19T16:31:49;8.80;99.90
15596;DHT22;7898;48.658;9.068;2023-02-19T16:34:22;8.80;99.90